createdAt,value
2024-02-11T00:00:17.798Z,9.72
2024-02-11T00:02:44.325Z,9.65
2024-02-11T00:05:11.687Z,9.62
2024-02-11T00:07:43.926Z,9.63
2024-02-11T00:10:10.770Z,9.60
2024-02-11T00:12:39.881Z,9.64
2024-02-11T00:15:08.452Z,9.63
2024-02-11T00:17:38.646Z,9.62
2024-02-11T00:20:17.452Z,9.64
2024-02-11T00:22:45.816Z,9.60
2024-02-11T00:25:13.223Z,9.59
2024-02-11T00:27:40.745Z,9.61
2024-02-11T00:30:07.936Z,9.66
2024-02-11T00:32:34.713Z,9.62
2024-02-11T00:35:01.674Z,9.59
2024-02-11T00:37:30.823Z,9.66
2024-02-11T00:39:58.259Z,9.60
2024-02-11T00:42:29.095Z,9.56
2024-02-11T00:44:56.049Z,9.58
2024-02-11T00:47:23.449Z,9.60
2024-02-11T00:49:50.185Z,9.65
2024-02-11T00:52:16.928Z,9.57
2024-02-11T00:54:44.030Z,9.62
2024-02-11T00:57:10.605Z,9.65
2024-02-11T00:59:37.183Z,9.64
2024-02-11T01:02:04.450Z,9.63
2024-02-11T01:04:31.542Z,9.58
2024-02-11T01:06:59.171Z,9.60
2024-02-11T01:09:26.656Z,9.65
2024-02-11T01:11:53.327Z,9.59
2024-02-11T01:14:20.076Z,9.60
2024-02-11T01:16:46.639Z,9.68
2024-02-11T01:19:13.275Z,9.61
2024-02-11T01:21:39.763Z,9.67
2024-02-11T01:24:06.515Z,9.72
2024-02-11T01:26:37.875Z,9.68
2024-02-11T01:29:07.519Z,9.63
2024-02-11T01:31:35.931Z,9.65
2024-02-11T01:34:04.835Z,9.58
2024-02-11T01:36:31.504Z,9.63
2024-02-11T01:38:58.028Z,9.64
2024-02-11T01:41:24.781Z,9.68
2024-02-11T01:43:51.380Z,9.58
2024-02-11T01:46:17.935Z,9.57
2024-02-11T01:48:44.685Z,9.63
2024-02-11T01:51:11.359Z,9.56
2024-02-11T01:53:38.683Z,9.60
2024-02-11T01:56:06.452Z,9.60
2024-02-11T01:58:33.640Z,9.63
2024-02-11T02:01:00.982Z,9.58
2024-02-11T02:03:27.571Z,9.55
2024-02-11T02:05:55.894Z,9.57
2024-02-11T02:08:22.788Z,9.57
2024-02-11T02:10:49.484Z,9.53
2024-02-11T02:13:16.022Z,9.56
2024-02-11T02:15:42.540Z,9.47
2024-02-11T02:18:09.763Z,9.54
2024-02-11T02:20:36.518Z,9.52
2024-02-11T02:23:03.159Z,9.55
2024-02-11T02:25:31.366Z,9.52
2024-02-11T02:27:57.965Z,9.44
2024-02-11T02:30:24.571Z,9.47
2024-02-11T02:32:51.072Z,9.43
2024-02-11T02:35:22.796Z,9.46
2024-02-11T02:37:53.434Z,9.43
2024-02-11T02:40:25.908Z,9.43
2024-02-11T02:42:52.594Z,9.46
2024-02-11T02:45:19.236Z,9.43
2024-02-11T02:47:48.090Z,9.48
2024-02-11T02:50:18.595Z,9.49
2024-02-11T02:52:45.503Z,9.48
2024-02-11T02:55:12.084Z,9.45
2024-02-11T02:57:38.649Z,9.49
2024-02-11T03:00:06.906Z,9.47
2024-02-11T03:02:35.850Z,9.48
2024-02-11T03:05:03.530Z,9.41
2024-02-11T03:07:30.285Z,9.46
2024-02-11T03:09:57.368Z,9.47
2024-02-11T03:12:23.906Z,9.45
2024-02-11T03:14:51.652Z,9.49
2024-02-11T03:17:18.239Z,9.49
2024-02-11T03:19:45.113Z,9.52
2024-02-11T03:22:14.276Z,9.51
2024-02-11T03:24:41.145Z,9.53
2024-02-11T03:27:08.249Z,9.55
2024-02-11T03:29:34.877Z,9.52
2024-02-11T03:32:01.501Z,9.54
2024-02-11T03:34:28.135Z,9.56
2024-02-11T03:36:55.756Z,9.55
2024-02-11T03:39:23.144Z,9.51
2024-02-11T03:41:50.388Z,9.53
2024-02-11T03:44:18.297Z,9.58
2024-02-11T03:46:44.961Z,9.60
2024-02-11T03:49:11.591Z,9.55
2024-02-11T03:51:38.181Z,9.60
2024-02-11T03:54:04.784Z,9.68
2024-02-11T03:56:31.393Z,9.64
2024-02-11T03:58:58.099Z,9.59
2024-02-11T04:01:25.320Z,9.55
2024-02-11T04:03:51.956Z,9.48
2024-02-11T04:06:21.979Z,9.39
2024-02-11T04:08:50.990Z,9.11
2024-02-11T04:11:19.411Z,8.74
2024-02-11T04:13:46.307Z,8.55
2024-02-11T04:16:16.779Z,8.35
2024-02-11T04:18:46.621Z,8.28
2024-02-11T04:21:13.452Z,8.22
2024-02-11T04:23:40.100Z,8.22
2024-02-11T04:26:09.444Z,8.08
2024-02-11T04:28:38.703Z,8.13
2024-02-11T04:31:05.327Z,8.10
2024-02-11T04:33:31.996Z,7.98
2024-02-11T04:36:02.104Z,8.00
2024-02-11T04:38:28.858Z,7.99
2024-02-11T04:40:56.321Z,8.01
2024-02-11T04:43:23.270Z,7.98
2024-02-11T04:45:49.860Z,7.89
2024-02-11T04:48:22.476Z,7.84
2024-02-11T04:50:49.331Z,7.81
2024-02-11T04:53:19.227Z,7.73
2024-02-11T04:55:49.533Z,7.77
2024-02-11T04:58:17.562Z,7.67
2024-02-11T05:00:47.253Z,7.64
2024-02-11T05:03:18.749Z,7.65
2024-02-11T05:05:46.596Z,7.63
2024-02-11T05:08:17.684Z,7.65
2024-02-11T05:10:45.674Z,7.66
2024-02-11T05:13:13.952Z,7.61
2024-02-11T05:15:42.037Z,7.67
2024-02-11T05:18:11.049Z,7.65
2024-02-11T05:20:41.350Z,7.58
2024-02-11T05:23:10.419Z,7.54
2024-02-11T05:25:41.086Z,7.54
2024-02-11T05:28:14.317Z,7.45
2024-02-11T05:30:49.407Z,7.40
2024-02-11T05:33:17.996Z,7.44
2024-02-11T05:35:45.110Z,7.39
2024-02-11T05:38:12.770Z,7.36
2024-02-11T05:40:42.636Z,7.35
2024-02-11T05:43:10.333Z,7.34
2024-02-11T05:45:41.260Z,7.25
2024-02-11T05:48:09.151Z,7.27
2024-02-11T05:50:35.773Z,7.26
2024-02-11T05:53:02.732Z,7.25
2024-02-11T05:55:29.326Z,7.28
2024-02-11T05:57:55.953Z,7.27
2024-02-11T06:00:26.918Z,7.22
2024-02-11T06:02:57.881Z,7.21
2024-02-11T06:05:26.077Z,7.20
2024-02-11T06:07:56.272Z,7.16
2024-02-11T06:10:27.375Z,7.17
2024-02-11T06:12:55.050Z,7.20
2024-02-11T06:15:22.294Z,7.19
2024-02-11T06:17:49.880Z,7.25
2024-02-11T06:20:19.339Z,7.24
2024-02-11T06:22:47.641Z,7.20
2024-02-11T06:25:15.130Z,7.26
2024-02-11T06:27:42.079Z,7.24
2024-02-11T06:30:13.537Z,7.26
2024-02-11T06:32:45.334Z,7.32
2024-02-11T06:35:12.028Z,7.33
2024-02-11T06:37:42.873Z,7.39
2024-02-11T06:40:14.489Z,7.35
2024-02-11T06:42:43.733Z,7.33
2024-02-11T06:45:13.655Z,7.36
2024-02-11T06:47:40.884Z,7.39
2024-02-11T06:50:09.847Z,7.39
2024-02-11T06:52:36.875Z,7.35
2024-02-11T06:55:04.201Z,7.36
2024-02-11T06:57:33.424Z,7.39
2024-02-11T07:00:00.410Z,7.36
2024-02-11T07:02:29.609Z,7.36
2024-02-11T07:04:57.122Z,7.37
2024-02-11T07:07:25.687Z,7.36
2024-02-11T07:09:52.514Z,7.37
2024-02-11T07:12:20.867Z,7.33
2024-02-11T07:14:48.071Z,7.36
2024-02-11T07:17:16.107Z,7.35
2024-02-11T07:19:42.987Z,7.37
2024-02-11T07:22:09.734Z,7.38
2024-02-11T07:24:40.617Z,7.37
2024-02-11T07:27:16.548Z,7.33
2024-02-11T07:29:44.137Z,7.34
2024-02-11T07:32:15.043Z,7.34
2024-02-11T07:34:42.667Z,7.36
2024-02-11T07:37:09.541Z,7.32
2024-02-11T07:39:36.067Z,7.34
2024-02-11T07:42:02.774Z,7.34
2024-02-11T07:44:29.504Z,7.38
2024-02-11T07:46:56.562Z,7.35
2024-02-11T07:49:24.280Z,7.35
2024-02-11T07:51:52.416Z,7.41
2024-02-11T07:54:20.384Z,7.43
2024-02-11T07:56:47.268Z,7.42
2024-02-11T07:59:14.019Z,7.47
2024-02-11T08:01:40.863Z,7.48
2024-02-11T08:04:07.845Z,7.43
2024-02-11T08:06:35.595Z,7.55
2024-02-11T08:09:03.187Z,7.59
2024-02-11T08:11:31.581Z,7.52
2024-02-11T08:13:58.847Z,7.61
2024-02-11T08:16:27.068Z,7.71
2024-02-11T08:18:55.856Z,7.68
2024-02-11T08:21:22.781Z,7.68
2024-02-11T08:23:49.566Z,7.66
2024-02-11T08:26:16.799Z,7.65
2024-02-11T08:28:43.424Z,7.67
2024-02-11T08:31:10.457Z,7.66
2024-02-11T08:33:37.389Z,7.68
2024-02-11T08:36:04.171Z,7.65
2024-02-11T08:38:32.339Z,7.67
2024-02-11T08:40:59.310Z,7.76
2024-02-11T08:43:26.866Z,7.63
2024-02-11T08:45:54.151Z,7.60
2024-02-11T08:48:21.697Z,7.58
2024-02-11T08:50:51.576Z,7.62
2024-02-11T08:53:20.158Z,7.59
2024-02-11T08:55:46.892Z,7.63
2024-02-11T08:58:18.364Z,7.68
2024-02-11T09:00:45.210Z,7.69
2024-02-11T09:03:12.326Z,7.69
2024-02-11T09:05:38.890Z,7.81
2024-02-11T09:08:05.887Z,7.73
2024-02-11T09:10:32.514Z,7.66
2024-02-11T09:12:59.269Z,7.68
2024-02-11T09:15:25.985Z,7.77
2024-02-11T09:17:52.593Z,7.75
2024-02-11T09:20:20.047Z,7.78
2024-02-11T09:22:47.233Z,7.76
2024-02-11T09:25:15.547Z,7.94
2024-02-11T09:27:43.829Z,7.82
2024-02-11T09:30:16.492Z,7.78
2024-02-11T09:32:43.289Z,7.93
2024-02-11T09:35:10.970Z,7.89
2024-02-11T09:37:37.715Z,7.95
2024-02-11T09:40:04.676Z,8.03
2024-02-11T09:42:31.825Z,8.02
2024-02-11T09:45:00.031Z,7.96
2024-02-11T09:47:26.847Z,8.01
2024-02-11T09:49:54.977Z,8.06
2024-02-11T09:52:21.715Z,8.15
2024-02-11T09:54:49.221Z,8.08
2024-02-11T09:57:15.776Z,7.97
2024-02-11T09:59:42.323Z,8.04
2024-02-11T10:02:19.589Z,8.07
2024-02-11T10:04:47.784Z,8.00
2024-02-11T10:07:25.041Z,8.08
2024-02-11T10:09:52.065Z,8.04
2024-02-11T10:12:20.131Z,8.03
2024-02-11T10:14:57.510Z,8.10
2024-02-11T10:17:24.753Z,8.12
2024-02-11T10:19:55.056Z,8.20
2024-02-11T10:22:28.598Z,8.23
2024-02-11T10:24:57.725Z,8.18
2024-02-11T10:27:25.205Z,8.08
2024-02-11T10:29:51.977Z,8.15
2024-02-11T10:32:19.041Z,8.15
2024-02-11T10:34:47.019Z,8.04
2024-02-11T10:37:16.524Z,8.01
2024-02-11T10:39:43.848Z,8.07
2024-02-11T10:42:12.839Z,8.12
2024-02-11T10:44:39.703Z,8.15
2024-02-11T10:47:09.745Z,8.25
2024-02-11T10:49:36.615Z,8.26
2024-02-11T10:52:07.190Z,8.37
2024-02-11T10:54:43.401Z,8.29
2024-02-11T10:57:15.395Z,8.35
2024-02-11T10:59:53.217Z,8.42
2024-02-11T11:02:20.760Z,8.44
2024-02-11T11:04:47.729Z,8.36
2024-02-11T11:07:16.417Z,8.45
2024-02-11T11:09:46.383Z,8.47
2024-02-11T11:12:16.489Z,8.34
2024-02-11T11:14:44.774Z,8.36
2024-02-11T11:17:21.625Z,8.41
2024-02-11T11:19:53.358Z,8.28
2024-02-11T11:22:29.791Z,8.28
2024-02-11T11:24:57.023Z,8.30
2024-02-11T11:27:24.884Z,8.32
2024-02-11T11:29:53.904Z,8.38
2024-02-11T11:32:25.036Z,8.47
2024-02-11T11:34:52.501Z,8.49
2024-02-11T11:37:19.418Z,8.37
2024-02-11T11:39:46.693Z,8.38
2024-02-11T11:42:13.842Z,8.38
2024-02-11T11:44:40.497Z,8.39
2024-02-11T11:47:07.328Z,8.60
2024-02-11T11:49:35.529Z,8.45
2024-02-11T11:52:02.359Z,8.56
2024-02-11T11:54:29.548Z,8.54
2024-02-11T11:57:00.761Z,8.47
2024-02-11T11:59:28.132Z,8.42
2024-02-11T12:01:57.037Z,8.53
2024-02-11T12:04:23.982Z,8.55
2024-02-11T12:06:51.013Z,8.55
2024-02-11T12:09:17.597Z,8.51
2024-02-11T12:11:49.778Z,8.54
2024-02-11T12:14:16.710Z,8.49
2024-02-11T12:16:44.073Z,8.48
2024-02-11T12:19:11.889Z,8.49
2024-02-11T12:21:38.464Z,8.43
2024-02-11T12:24:12.516Z,8.47
2024-02-11T12:26:39.248Z,8.68
2024-02-11T12:29:05.914Z,8.75
2024-02-11T12:31:34.596Z,8.77
2024-02-11T12:34:02.573Z,8.72
2024-02-11T12:36:29.616Z,8.70
2024-02-11T12:38:57.710Z,8.80
2024-02-11T12:41:25.758Z,8.77
2024-02-11T12:43:53.900Z,8.71
2024-02-11T12:46:20.754Z,8.82
2024-02-11T12:48:48.025Z,8.56
2024-02-11T12:51:15.806Z,8.60
2024-02-11T12:53:43.203Z,8.52
2024-02-11T12:56:13.213Z,8.42
2024-02-11T12:58:40.908Z,8.47
2024-02-11T13:01:11.858Z,8.51
2024-02-11T13:03:43.048Z,8.55
2024-02-11T13:06:10.377Z,8.48
2024-02-11T13:08:37.730Z,8.37
2024-02-11T13:11:07.151Z,8.51
2024-02-11T13:13:35.389Z,8.46
2024-02-11T13:16:02.170Z,8.43
2024-02-11T13:18:29.469Z,8.55
2024-02-11T13:20:57.882Z,8.55
2024-02-11T13:23:24.892Z,8.60
2024-02-11T13:25:53.145Z,8.58
2024-02-11T13:28:21.070Z,8.60
2024-02-11T13:30:48.629Z,8.70
2024-02-11T13:33:15.938Z,8.63
2024-02-11T13:35:43.651Z,8.65
2024-02-11T13:38:10.390Z,8.70
2024-02-11T13:40:38.305Z,8.79
2024-02-11T13:43:05.013Z,8.83
2024-02-11T13:45:32.093Z,8.91
2024-02-11T13:48:01.168Z,8.90
2024-02-11T13:50:30.903Z,8.96
2024-02-11T13:52:58.402Z,9.02
2024-02-11T13:55:25.056Z,9.11
2024-02-11T13:57:52.168Z,9.18
2024-02-11T14:00:19.720Z,9.30
2024-02-11T14:02:46.498Z,9.21
2024-02-11T14:05:13.485Z,9.24
2024-02-11T14:07:40.935Z,9.17
2024-02-11T14:10:08.070Z,9.28
2024-02-11T14:12:38.985Z,9.39
2024-02-11T14:15:10.948Z,9.44
2024-02-11T14:17:43.289Z,9.35
2024-02-11T14:20:12.456Z,9.38
2024-02-11T14:22:43.778Z,9.33
2024-02-11T14:25:18.530Z,9.26
2024-02-11T14:27:49.395Z,9.28
2024-02-11T14:30:18.169Z,9.25
2024-02-11T14:32:46.063Z,9.33
2024-02-11T14:35:14.046Z,9.22
2024-02-11T14:37:42.593Z,9.26
2024-02-11T14:40:16.681Z,9.21
2024-02-11T14:42:46.380Z,9.19
2024-02-11T14:45:14.170Z,9.25
2024-02-11T14:47:40.895Z,9.33
2024-02-11T14:50:10.271Z,9.21
2024-02-11T14:52:37.627Z,9.19
2024-02-11T14:55:05.009Z,9.28
2024-02-11T14:57:32.567Z,9.26
2024-02-11T14:59:59.305Z,9.24
2024-02-11T15:02:28.698Z,9.18
2024-02-11T15:04:58.668Z,9.15
2024-02-11T15:07:26.888Z,9.17
2024-02-11T15:09:56.443Z,9.14
2024-02-11T15:12:24.736Z,9.22
2024-02-11T15:14:51.634Z,9.15
2024-02-11T15:17:19.195Z,9.26
2024-02-11T15:19:47.222Z,9.24
2024-02-11T15:22:14.853Z,9.22
2024-02-11T15:24:43.050Z,9.22
2024-02-11T15:27:09.970Z,9.22
2024-02-11T15:29:36.535Z,9.21
2024-02-11T15:32:04.210Z,9.26
2024-02-11T15:34:31.000Z,9.27
2024-02-11T15:36:57.949Z,9.27
2024-02-11T15:39:25.187Z,9.30
2024-02-11T15:41:54.975Z,9.36
2024-02-11T15:44:22.214Z,9.27
2024-02-11T15:46:49.590Z,9.26
2024-02-11T15:49:16.350Z,9.19
2024-02-11T15:51:48.180Z,9.26
2024-02-11T15:54:16.134Z,9.12
2024-02-11T15:56:43.521Z,9.14
2024-02-11T15:59:10.753Z,9.18
2024-02-11T16:01:37.435Z,9.22
2024-02-11T16:04:05.746Z,9.24
2024-02-11T16:06:33.339Z,9.19
2024-02-11T16:08:59.970Z,9.23
2024-02-11T16:11:26.838Z,9.22
2024-02-11T16:13:53.550Z,9.27
2024-02-11T16:16:20.270Z,9.22
2024-02-11T16:18:47.136Z,9.18
2024-02-11T16:21:15.257Z,9.18
2024-02-11T16:23:48.410Z,9.16
2024-02-11T16:26:17.165Z,9.10
2024-02-11T16:28:45.041Z,9.13
2024-02-11T16:31:14.217Z,9.11
2024-02-11T16:33:41.198Z,9.06
2024-02-11T16:36:08.509Z,9.00
2024-02-11T16:38:35.415Z,8.96
2024-02-11T16:41:02.154Z,8.91
2024-02-11T16:43:28.765Z,8.86
2024-02-11T16:45:55.281Z,8.79
2024-02-11T16:48:24.013Z,8.78
2024-02-11T16:50:50.806Z,8.67
2024-02-11T16:53:17.498Z,8.64
2024-02-11T16:55:44.280Z,8.60
2024-02-11T16:58:10.965Z,8.59
2024-02-11T17:00:37.607Z,8.50
2024-02-11T17:03:05.943Z,8.46
2024-02-11T17:05:32.816Z,8.41
2024-02-11T17:07:59.667Z,8.33
2024-02-11T17:10:26.296Z,8.23
2024-02-11T17:12:52.869Z,8.17
2024-02-11T17:15:19.497Z,8.07
2024-02-11T17:17:46.208Z,7.98
2024-02-11T17:20:17.338Z,7.95
2024-02-11T17:22:45.078Z,7.88
2024-02-11T17:25:11.832Z,7.81
2024-02-11T17:27:39.205Z,7.77
2024-02-11T17:30:07.632Z,7.77
2024-02-11T17:32:42.372Z,7.75
2024-02-11T17:35:14.025Z,7.72
2024-02-11T17:37:40.696Z,7.78
2024-02-11T17:40:11.538Z,7.83
2024-02-11T17:42:41.391Z,7.76
2024-02-11T17:45:12.873Z,7.71
2024-02-11T17:47:40.075Z,7.72
2024-02-11T17:50:12.201Z,7.72
2024-02-11T17:52:42.370Z,7.68
2024-02-11T17:55:10.098Z,7.63
2024-02-11T17:57:42.201Z,7.55
2024-02-11T18:00:09.872Z,7.48
2024-02-11T18:02:39.919Z,7.42
2024-02-11T18:05:13.870Z,7.43
2024-02-11T18:07:44.479Z,7.40
2024-02-11T18:10:11.482Z,7.32
2024-02-11T18:12:38.360Z,7.31
2024-02-11T18:15:06.649Z,7.32
2024-02-11T18:17:33.454Z,7.30
2024-02-11T18:20:00.398Z,7.33
2024-02-11T18:22:26.928Z,7.34
2024-02-11T18:24:53.466Z,7.39
2024-02-11T18:27:20.047Z,7.37
2024-02-11T18:29:46.846Z,7.40
2024-02-11T18:32:13.426Z,7.39
2024-02-11T18:34:40.241Z,7.44
2024-02-11T18:37:06.870Z,7.46
2024-02-11T18:39:33.448Z,7.46
2024-02-11T18:42:00.241Z,7.48
2024-02-11T18:44:27.860Z,7.44
2024-02-11T18:46:54.489Z,7.46
2024-02-11T18:49:21.159Z,7.53
2024-02-11T18:51:47.665Z,7.57
2024-02-11T18:54:14.255Z,7.61
2024-02-11T18:56:40.856Z,7.64
2024-02-11T18:59:09.016Z,7.67
2024-02-11T19:01:36.992Z,7.71
2024-02-11T19:04:03.586Z,7.69
2024-02-11T19:06:33.814Z,7.75
2024-02-11T19:09:01.897Z,7.71
2024-02-11T19:11:28.657Z,7.70
2024-02-11T19:13:55.476Z,7.70
2024-02-11T19:16:22.109Z,7.73
2024-02-11T19:18:48.854Z,7.80
2024-02-11T19:21:16.525Z,7.67
2024-02-11T19:23:47.156Z,7.73
2024-02-11T19:26:16.797Z,7.74
2024-02-11T19:28:44.171Z,7.66
2024-02-11T19:31:13.197Z,7.70
2024-02-11T19:33:40.221Z,7.68
2024-02-11T19:36:07.751Z,7.67
2024-02-11T19:38:37.757Z,7.70
2024-02-11T19:41:06.006Z,7.62
2024-02-11T19:43:34.208Z,7.60
2024-02-11T19:46:03.646Z,7.50
2024-02-11T19:48:32.632Z,7.44
2024-02-11T19:50:59.923Z,7.44
2024-02-11T19:53:35.088Z,7.50
2024-02-11T19:56:13.539Z,7.50
2024-02-11T19:58:40.803Z,7.46
2024-02-11T20:01:08.159Z,7.47
2024-02-11T20:03:37.638Z,7.44
2024-02-11T20:06:07.055Z,7.45
2024-02-11T20:08:35.423Z,7.52
2024-02-11T20:11:05.926Z,7.52
2024-02-11T20:13:34.297Z,7.51
2024-02-11T20:16:04.058Z,7.49
2024-02-11T20:18:30.707Z,7.44
2024-02-11T20:20:58.386Z,7.40
2024-02-11T20:23:25.357Z,7.40
2024-02-11T20:25:52.003Z,7.38
2024-02-11T20:28:19.265Z,7.45
2024-02-11T20:30:45.882Z,7.47
2024-02-11T20:33:14.630Z,7.45
2024-02-11T20:35:42.407Z,7.50
2024-02-11T20:38:16.263Z,7.46
2024-02-11T20:40:43.487Z,7.45
2024-02-11T20:43:10.525Z,7.40
2024-02-11T20:45:45.042Z,7.45
2024-02-11T20:48:13.201Z,7.38
2024-02-11T20:50:40.558Z,7.32
2024-02-11T20:53:09.672Z,7.32
2024-02-11T20:55:38.603Z,7.28
2024-02-11T20:58:05.849Z,7.25
2024-02-11T21:00:36.333Z,7.18
2024-02-11T21:03:08.964Z,7.16
2024-02-11T21:05:36.822Z,7.20
2024-02-11T21:08:04.574Z,7.18
2024-02-11T21:10:34.081Z,7.21
2024-02-11T21:13:01.361Z,7.23
2024-02-11T21:15:28.034Z,7.25
2024-02-11T21:17:56.799Z,7.25
2024-02-11T21:20:29.099Z,7.23
2024-02-11T21:22:56.445Z,7.26
2024-02-11T21:25:24.314Z,7.22
2024-02-11T21:27:57.617Z,7.18
2024-02-11T21:30:26.436Z,7.19
2024-02-11T21:32:53.427Z,7.21
2024-02-11T21:35:20.469Z,7.15
2024-02-11T21:37:49.061Z,7.14
2024-02-11T21:40:15.920Z,7.14
2024-02-11T21:42:43.359Z,7.14
2024-02-11T21:45:13.779Z,7.14
2024-02-11T21:47:41.913Z,7.15
2024-02-11T21:50:13.930Z,7.18
2024-02-11T21:52:41.259Z,7.12
2024-02-11T21:55:10.753Z,7.14
2024-02-11T21:57:38.779Z,7.08
2024-02-11T22:00:15.491Z,7.00
2024-02-11T22:02:51.503Z,6.95
2024-02-11T22:05:20.161Z,6.90
2024-02-11T22:07:46.925Z,6.84
2024-02-11T22:10:13.628Z,6.85
2024-02-11T22:12:42.128Z,6.80
2024-02-11T22:15:09.362Z,6.77
2024-02-11T22:17:37.287Z,6.70
2024-02-11T22:20:05.323Z,6.65
2024-02-11T22:22:32.305Z,6.61
2024-02-11T22:25:01.160Z,6.52
2024-02-11T22:27:31.106Z,6.49
2024-02-11T22:30:01.231Z,6.46
2024-02-11T22:32:28.357Z,6.37
2024-02-11T22:34:57.996Z,6.29
2024-02-11T22:37:24.969Z,6.23
2024-02-11T22:39:51.794Z,6.22
2024-02-11T22:42:19.652Z,6.12
2024-02-11T22:44:47.091Z,6.06
2024-02-11T22:47:17.463Z,6.00
2024-02-11T22:49:49.490Z,6.01
2024-02-11T22:52:16.319Z,5.98
2024-02-11T22:54:42.876Z,5.97
2024-02-11T22:57:10.011Z,5.88
2024-02-11T22:59:37.095Z,5.82
2024-02-11T23:02:06.292Z,5.82
2024-02-11T23:04:34.065Z,5.79
2024-02-11T23:07:00.680Z,5.75
2024-02-11T23:09:30.262Z,5.70
2024-02-11T23:12:01.474Z,5.67
2024-02-11T23:14:29.684Z,5.66
2024-02-11T23:16:57.226Z,5.63
2024-02-11T23:19:28.845Z,5.62
2024-02-11T23:21:56.689Z,5.65
2024-02-11T23:24:26.904Z,5.70
2024-02-11T23:26:55.209Z,5.70
2024-02-11T23:29:24.578Z,5.69
2024-02-11T23:31:52.462Z,5.72
2024-02-11T23:34:23.233Z,5.76
2024-02-11T23:36:50.229Z,5.77
2024-02-11T23:39:23.872Z,5.79
2024-02-11T23:41:50.573Z,5.80
2024-02-11T23:44:18.824Z,5.84
2024-02-11T23:46:48.530Z,5.82
2024-02-11T23:49:21.812Z,5.83
2024-02-11T23:51:49.003Z,5.82
2024-02-11T23:54:17.571Z,5.86
2024-02-11T23:56:45.067Z,5.83
2024-02-11T23:59:12.738Z,5.87
